createdAt,value
2024-01-20T00:01:15.848Z,-0.49
2024-01-20T00:03:50.880Z,-0.47
2024-01-20T00:06:21.962Z,-0.47
2024-01-20T00:08:51.116Z,-0.44
2024-01-20T00:11:20.534Z,-0.43
2024-01-20T00:13:49.600Z,-0.52
2024-01-20T00:16:18.860Z,-0.48
2024-01-20T00:18:48.035Z,-0.49
2024-01-20T00:21:17.270Z,-0.49
2024-01-20T00:23:47.557Z,-0.49
2024-01-20T00:26:16.954Z,-0.54
2024-01-20T00:28:46.151Z,-0.52
2024-01-20T00:31:16.377Z,-0.49
2024-01-20T00:33:45.825Z,-0.50
2024-01-20T00:36:15.619Z,-0.47
2024-01-20T00:38:44.558Z,-0.39
2024-01-20T00:41:16.563Z,-0.37
2024-01-20T00:43:47.413Z,-0.30
2024-01-20T00:46:16.600Z,-0.22
2024-01-20T00:48:45.472Z,-0.22
2024-01-20T00:51:14.773Z,-0.16
2024-01-20T00:53:43.709Z,-0.11
2024-01-20T00:56:12.913Z,-0.07
2024-01-20T00:58:43.399Z,-0.01
2024-01-20T01:01:12.830Z,-0.02
2024-01-20T01:03:43.342Z,0.05
2024-01-20T01:06:12.687Z,0.05
2024-01-20T01:08:41.564Z,0.04
2024-01-20T01:11:12.409Z,0.05
2024-01-20T01:17:15.194Z,0.08
2024-01-20T01:19:44.618Z,0.09
2024-01-20T01:22:13.553Z,0.12
2024-01-20T01:24:42.663Z,0.09
2024-01-20T01:27:11.531Z,0.11
2024-01-20T01:29:40.702Z,0.10
2024-01-20T01:32:09.663Z,0.12
2024-01-20T01:34:40.305Z,0.14
2024-01-20T01:37:09.276Z,0.15
2024-01-20T01:39:38.436Z,0.16
2024-01-20T01:42:07.310Z,0.14
2024-01-20T01:44:36.428Z,0.20
2024-01-20T01:47:05.612Z,0.15
2024-01-20T01:49:34.857Z,0.18
2024-01-20T01:52:05.695Z,0.26
2024-01-20T01:54:35.151Z,0.23
2024-01-20T01:57:05.104Z,0.31
2024-01-20T01:59:35.423Z,0.30
2024-01-20T02:02:04.419Z,0.29
2024-01-20T02:04:33.694Z,0.32
2024-01-20T02:07:02.785Z,0.33
2024-01-20T02:09:34.199Z,0.25
2024-01-20T02:12:04.303Z,0.31
2024-01-20T02:14:34.109Z,0.32
2024-01-20T02:17:03.674Z,0.30
2024-01-20T02:19:33.921Z,0.30
2024-01-20T02:22:10.565Z,0.27
2024-01-20T02:24:40.683Z,0.28
2024-01-20T02:27:10.784Z,0.25
2024-01-20T02:29:40.980Z,0.26
2024-01-20T02:32:09.819Z,0.28
2024-01-20T02:34:41.068Z,0.24
2024-01-20T02:37:11.784Z,0.22
2024-01-20T02:39:40.921Z,0.22
2024-01-20T02:42:12.010Z,0.20
2024-01-20T02:44:41.368Z,0.14
2024-01-20T02:47:10.437Z,0.19
2024-01-20T02:49:39.734Z,0.15
2024-01-20T02:52:08.754Z,0.13
2024-01-20T02:54:39.523Z,0.06
2024-01-20T02:57:08.573Z,0.10
2024-01-20T02:59:37.839Z,0.10
2024-01-20T03:02:06.700Z,0.11
2024-01-20T03:04:36.037Z,0.09
2024-01-20T03:07:06.014Z,0.11
2024-01-20T03:09:35.375Z,0.09
2024-01-20T03:12:05.970Z,0.06
2024-01-20T03:14:36.165Z,0.10
2024-01-20T03:17:05.434Z,0.12
2024-01-20T03:19:34.681Z,0.15
2024-01-20T03:22:03.729Z,0.19
2024-01-20T03:24:33.018Z,0.18
2024-01-20T03:27:02.060Z,0.26
2024-01-20T03:29:32.673Z,0.25
2024-01-20T03:32:01.582Z,0.30
2024-01-20T03:34:30.882Z,0.37
2024-01-20T03:36:59.831Z,0.38
2024-01-20T03:39:29.165Z,0.37
2024-01-20T03:41:58.448Z,0.33
2024-01-20T03:44:27.703Z,0.33
2024-01-20T03:46:58.003Z,0.40
2024-01-20T03:49:27.428Z,0.45
2024-01-20T03:51:56.421Z,0.45
2024-01-20T03:54:25.626Z,0.50
2024-01-20T03:56:54.554Z,0.59
2024-01-20T03:59:23.705Z,0.74
2024-01-20T04:01:52.628Z,0.89
2024-01-20T04:04:24.078Z,0.98
2024-01-20T04:06:53.089Z,1.05
2024-01-20T04:09:22.385Z,1.08
2024-01-20T04:11:51.393Z,1.13
2024-01-20T04:14:20.760Z,1.19
2024-01-20T04:16:49.629Z,1.30
2024-01-20T04:19:18.990Z,1.31
2024-01-20T04:21:49.433Z,1.39
2024-01-20T04:24:19.446Z,1.45
2024-01-20T04:26:48.462Z,1.41
2024-01-20T04:29:17.642Z,1.37
2024-01-20T04:31:46.498Z,1.33
2024-01-20T04:34:15.912Z,1.41
2024-01-20T04:36:44.938Z,1.41
2024-01-20T04:39:15.519Z,1.55
2024-01-20T04:41:44.344Z,1.50
2024-01-20T04:44:13.511Z,1.58
2024-01-20T04:46:42.325Z,1.48
2024-01-20T04:49:11.532Z,1.54
2024-01-20T04:51:40.509Z,1.44
2024-01-20T04:54:10.509Z,1.56
2024-01-20T04:56:40.819Z,1.54
2024-01-20T04:59:10.023Z,1.45
2024-01-20T05:01:40.871Z,1.50
2024-01-20T05:04:10.326Z,1.63
2024-01-20T05:06:39.589Z,1.57
2024-01-20T05:09:08.876Z,1.53
2024-01-20T05:11:37.834Z,1.42
2024-01-20T05:14:08.571Z,1.48
2024-01-20T05:16:37.503Z,1.43
2024-01-20T05:19:06.802Z,1.51
2024-01-20T05:21:35.692Z,1.48
2024-01-20T05:24:05.398Z,1.51
2024-01-20T05:26:34.535Z,1.46
2024-01-20T05:29:03.655Z,1.47
2024-01-20T05:31:33.934Z,1.47
2024-01-20T05:34:03.292Z,1.43
2024-01-20T05:36:32.420Z,1.42
2024-01-20T05:39:01.586Z,1.48
2024-01-20T05:41:30.473Z,1.45
2024-01-20T05:44:00.073Z,1.44
2024-01-20T05:46:29.032Z,1.48
2024-01-20T05:48:59.656Z,1.44
2024-01-20T05:51:28.709Z,1.46
2024-01-20T05:53:58.446Z,1.42
2024-01-20T05:56:27.415Z,1.42
2024-01-20T05:58:56.530Z,1.41
2024-01-20T06:01:25.544Z,1.45
2024-01-20T06:03:54.821Z,1.40
2024-01-20T06:06:25.230Z,1.42
2024-01-20T06:08:54.565Z,1.49
2024-01-20T06:11:25.218Z,1.45
2024-01-20T06:13:54.377Z,1.40
2024-01-20T06:16:23.305Z,1.40
2024-01-20T06:18:52.720Z,1.45
2024-01-20T06:21:22.679Z,1.50
2024-01-20T06:23:53.621Z,1.49
2024-01-20T06:26:22.861Z,1.48
2024-01-20T06:28:52.134Z,1.54
2024-01-20T06:31:24.936Z,1.53
2024-01-20T06:33:54.513Z,1.52
2024-01-20T06:36:26.427Z,1.53
2024-01-20T06:38:57.177Z,1.58
2024-01-20T06:41:26.089Z,1.63
2024-01-20T06:43:55.288Z,1.67
2024-01-20T06:46:24.233Z,1.62
2024-01-20T06:48:53.584Z,1.61
2024-01-20T06:51:27.134Z,1.52
2024-01-20T06:53:59.576Z,1.61
2024-01-20T06:56:28.608Z,1.65
2024-01-20T06:58:59.656Z,1.63
2024-01-20T07:01:28.575Z,1.64
2024-01-20T07:03:58.491Z,1.56
2024-01-20T07:06:28.481Z,1.54
2024-01-20T07:08:59.074Z,1.54
2024-01-20T07:11:27.913Z,1.54
2024-01-20T07:13:57.053Z,1.45
2024-01-20T07:16:26.074Z,1.51
2024-01-20T07:18:56.216Z,1.53
2024-01-20T07:21:25.304Z,1.51
2024-01-20T07:23:54.499Z,1.56
2024-01-20T07:26:24.765Z,1.56
2024-01-20T07:28:53.933Z,1.61
2024-01-20T07:31:24.033Z,1.68
2024-01-20T07:33:53.301Z,1.64
2024-01-20T07:36:22.182Z,1.61
2024-01-20T07:38:51.580Z,1.72
2024-01-20T07:41:20.564Z,1.68
2024-01-20T07:43:51.201Z,1.72
2024-01-20T07:46:20.170Z,1.75
2024-01-20T07:48:50.049Z,1.77
2024-01-20T07:51:19.548Z,1.93
2024-01-20T07:53:49.023Z,1.85
2024-01-20T07:56:17.875Z,1.80
2024-01-20T07:58:47.004Z,1.78
2024-01-20T08:01:17.764Z,1.78
2024-01-20T08:03:47.217Z,1.77
2024-01-20T08:06:16.280Z,1.76
2024-01-20T08:08:45.833Z,1.76
2024-01-20T08:11:14.768Z,1.77
2024-01-20T08:13:45.338Z,1.74
2024-01-20T08:16:14.502Z,1.77
2024-01-20T08:18:45.116Z,1.63
2024-01-20T08:21:14.076Z,1.61
2024-01-20T08:23:43.376Z,1.60
2024-01-20T08:26:12.195Z,1.52
2024-01-20T08:28:41.332Z,1.53
2024-01-20T08:31:10.419Z,1.65
2024-01-20T08:33:40.158Z,1.64
2024-01-20T08:36:11.520Z,1.58
2024-01-20T08:38:41.041Z,1.66
2024-01-20T08:41:10.288Z,1.69
2024-01-20T08:43:43.111Z,1.76
2024-01-20T08:46:13.934Z,1.93
2024-01-20T08:48:43.246Z,2.03
2024-01-20T08:51:14.704Z,1.87
2024-01-20T08:53:44.506Z,1.80
2024-01-20T08:56:13.313Z,1.69
2024-01-20T08:58:42.614Z,1.55
2024-01-20T09:01:11.440Z,1.56
2024-01-20T09:03:40.727Z,1.54
2024-01-20T09:06:10.007Z,1.46
2024-01-20T09:08:40.773Z,1.49
2024-01-20T09:11:09.631Z,1.45
2024-01-20T09:13:38.796Z,1.52
2024-01-20T09:16:07.865Z,1.46
2024-01-20T09:18:37.239Z,1.42
2024-01-20T09:21:11.339Z,1.47
2024-01-20T09:23:42.796Z,1.52
2024-01-20T09:26:11.733Z,1.54
2024-01-20T09:28:40.914Z,1.52
2024-01-20T09:31:09.698Z,1.45
2024-01-20T09:33:38.935Z,1.40
2024-01-20T09:36:08.667Z,1.29
2024-01-20T09:38:37.890Z,1.24
2024-01-20T09:41:11.144Z,1.25
2024-01-20T09:43:40.782Z,1.10
2024-01-20T09:46:09.821Z,1.09
2024-01-20T09:48:39.114Z,1.06
2024-01-20T09:51:08.406Z,1.12
2024-01-20T09:53:37.757Z,1.21
2024-01-20T09:56:08.298Z,1.14
2024-01-20T09:58:37.700Z,1.19
2024-01-20T10:01:07.044Z,1.16
2024-01-20T10:03:36.909Z,1.20
2024-01-20T10:06:06.152Z,1.14
2024-01-20T10:08:38.111Z,1.13
2024-01-20T10:11:08.836Z,1.08
2024-01-20T10:13:38.417Z,1.03
2024-01-20T10:16:07.748Z,1.07
2024-01-20T10:18:37.270Z,1.11
2024-01-20T10:21:07.110Z,1.22
2024-01-20T10:23:37.018Z,1.22
2024-01-20T10:26:07.041Z,1.21
2024-01-20T10:28:37.607Z,1.26
2024-01-20T10:31:10.115Z,1.30
2024-01-20T10:33:39.849Z,1.37
2024-01-20T10:36:11.738Z,1.37
2024-01-20T10:38:41.018Z,1.50
2024-01-20T10:41:10.188Z,1.45
2024-01-20T10:43:44.495Z,1.38
2024-01-20T10:46:19.741Z,1.38
2024-01-20T10:48:49.659Z,1.38
2024-01-20T10:51:21.147Z,1.37
2024-01-20T10:53:50.921Z,1.37
2024-01-20T10:56:19.975Z,1.37
2024-01-20T10:58:54.012Z,1.34
2024-01-20T11:01:23.317Z,1.43
2024-01-20T11:03:52.685Z,1.41
2024-01-20T11:06:22.150Z,1.34
2024-01-20T11:08:52.450Z,1.27
2024-01-20T11:11:21.834Z,1.27
2024-01-20T11:13:52.356Z,1.32
2024-01-20T11:16:21.851Z,1.33
2024-01-20T11:18:51.159Z,1.27
2024-01-20T11:21:20.869Z,1.23
2024-01-20T11:23:59.464Z,1.25
2024-01-20T11:26:33.318Z,1.16
2024-01-20T11:29:05.788Z,1.03
2024-01-20T11:31:35.180Z,1.01
2024-01-20T11:34:07.194Z,1.01
2024-01-20T11:36:37.070Z,0.95
2024-01-20T11:39:07.276Z,0.97
2024-01-20T11:41:36.618Z,0.92
2024-01-20T11:44:07.192Z,0.95
2024-01-20T11:46:36.138Z,0.90
2024-01-20T11:49:05.566Z,0.96
2024-01-20T11:51:34.553Z,0.96
2024-01-20T11:54:03.746Z,1.04
2024-01-20T11:56:32.611Z,1.14
2024-01-20T11:59:01.926Z,1.23
2024-01-20T12:01:32.522Z,1.21
2024-01-20T12:04:02.719Z,1.30
2024-01-20T12:06:31.811Z,1.35
2024-01-20T12:09:02.479Z,1.34
2024-01-20T12:11:31.341Z,1.32
2024-01-20T12:14:00.652Z,1.25
2024-01-20T12:16:29.490Z,1.18
2024-01-20T12:19:00.153Z,1.18
2024-01-20T12:21:30.185Z,1.25
2024-01-20T12:24:00.427Z,1.31
2024-01-20T12:26:29.417Z,1.46
2024-01-20T12:28:58.678Z,1.48
2024-01-20T12:31:27.962Z,1.54
2024-01-20T12:33:57.340Z,1.65
2024-01-20T12:36:28.454Z,1.76
2024-01-20T12:38:57.513Z,1.88
2024-01-20T12:41:27.952Z,1.93
2024-01-20T12:43:56.755Z,1.85
2024-01-20T12:46:25.888Z,1.86
2024-01-20T12:48:54.889Z,1.84
2024-01-20T12:51:24.331Z,1.81
2024-01-20T12:53:54.728Z,1.82
2024-01-20T12:56:24.057Z,1.74
2024-01-20T12:58:53.733Z,1.38
2024-01-20T13:01:26.484Z,1.31
2024-01-20T13:03:55.795Z,1.39
2024-01-20T13:06:25.305Z,1.29
2024-01-20T13:08:55.671Z,1.33
2024-01-20T13:11:24.994Z,1.34
2024-01-20T13:13:54.804Z,1.35
2024-01-20T13:16:24.044Z,1.37
2024-01-20T13:19:00.010Z,1.40
2024-01-20T13:21:29.883Z,1.46
2024-01-20T13:24:00.893Z,1.48
2024-01-20T13:26:30.018Z,1.46
2024-01-20T13:28:59.539Z,1.52
2024-01-20T13:31:29.265Z,1.44
2024-01-20T13:33:58.406Z,1.45
2024-01-20T13:36:27.679Z,1.51
2024-01-20T13:38:56.831Z,1.53
2024-01-20T13:41:30.544Z,1.59
2024-01-20T13:43:59.935Z,1.71
2024-01-20T13:46:29.298Z,1.68
2024-01-20T13:48:59.022Z,1.72
2024-01-20T13:51:32.973Z,1.71
2024-01-20T13:54:02.254Z,1.66
2024-01-20T13:56:32.727Z,1.55
2024-01-20T13:59:03.741Z,1.52
2024-01-20T14:01:33.053Z,1.39
2024-01-20T14:04:02.432Z,1.35
2024-01-20T14:06:31.803Z,1.35
2024-01-20T14:09:00.844Z,1.33
2024-01-20T14:11:31.233Z,1.29
2024-01-20T14:14:01.368Z,1.22
2024-01-20T14:16:31.645Z,1.21
2024-01-20T14:19:03.138Z,1.18
2024-01-20T14:21:34.934Z,1.23
2024-01-20T14:24:04.085Z,1.24
2024-01-20T14:26:33.386Z,1.22
2024-01-20T14:29:07.391Z,1.14
2024-01-20T14:31:45.685Z,1.15
2024-01-20T14:34:14.680Z,1.19
2024-01-20T14:36:47.927Z,1.18
2024-01-20T14:39:18.009Z,1.16
2024-01-20T14:41:48.289Z,1.21
2024-01-20T14:44:18.608Z,1.18
2024-01-20T14:46:47.912Z,1.15
2024-01-20T14:49:17.009Z,1.17
2024-01-20T14:51:47.068Z,1.12
2024-01-20T14:54:15.974Z,1.08
2024-01-20T14:56:45.258Z,1.06
2024-01-20T14:59:14.332Z,1.12
2024-01-20T15:01:46.852Z,1.05
2024-01-20T15:04:15.993Z,1.03
2024-01-20T15:06:45.447Z,1.03
2024-01-20T15:09:14.635Z,0.99
2024-01-20T15:11:43.860Z,0.98
2024-01-20T15:14:12.651Z,0.95
2024-01-20T15:16:42.983Z,0.91
2024-01-20T15:19:13.950Z,0.90
2024-01-20T15:21:43.323Z,0.86
2024-01-20T15:24:12.328Z,0.80
2024-01-20T15:26:41.698Z,0.76
2024-01-20T15:29:12.468Z,0.74
2024-01-20T15:31:41.806Z,0.73
2024-01-20T15:34:15.086Z,0.73
2024-01-20T15:36:45.009Z,0.73
2024-01-20T15:39:14.025Z,0.66
2024-01-20T15:41:47.047Z,0.63
2024-01-20T15:44:15.876Z,0.64
2024-01-20T15:46:45.020Z,0.61
2024-01-20T15:49:18.427Z,0.60
2024-01-20T15:51:50.901Z,0.57
2024-01-20T15:54:20.034Z,0.62
2024-01-20T15:56:49.241Z,0.64
2024-01-20T15:59:21.067Z,0.68
2024-01-20T16:01:50.340Z,0.63
2024-01-20T16:04:20.647Z,0.62
2024-01-20T16:06:49.967Z,0.61
2024-01-20T16:09:20.336Z,0.58
2024-01-20T16:11:52.731Z,0.51
2024-01-20T16:14:23.513Z,0.57
2024-01-20T16:16:52.932Z,0.56
2024-01-20T16:19:23.309Z,0.56
2024-01-20T16:21:54.688Z,0.54
2024-01-20T16:24:24.578Z,0.53
2024-01-20T16:26:53.869Z,0.48
2024-01-20T16:29:22.962Z,0.53
2024-01-20T16:31:53.141Z,0.52
2024-01-20T16:34:24.990Z,0.53
2024-01-20T16:36:54.927Z,0.50
2024-01-20T16:39:24.055Z,0.50
2024-01-20T16:41:54.612Z,0.57
2024-01-20T16:44:23.770Z,0.50
2024-01-20T16:46:53.253Z,0.47
2024-01-20T16:49:28.124Z,0.51
2024-01-20T16:51:59.405Z,0.43
2024-01-20T16:54:28.397Z,0.45
2024-01-20T16:56:57.693Z,0.41
2024-01-20T16:59:26.690Z,0.42
2024-01-20T17:02:01.646Z,0.43
2024-01-20T17:04:32.325Z,0.41
2024-01-20T17:07:03.832Z,0.38
2024-01-20T17:09:32.813Z,0.39
2024-01-20T17:12:02.263Z,0.38
2024-01-20T17:14:31.294Z,0.38
2024-01-20T17:17:00.488Z,0.38
2024-01-20T17:19:32.261Z,0.33
2024-01-20T17:22:03.054Z,0.35
2024-01-20T17:24:34.717Z,0.31
2024-01-20T17:27:04.375Z,0.29
2024-01-20T17:29:33.525Z,0.27
2024-01-20T17:32:02.796Z,0.24
2024-01-20T17:34:31.813Z,0.13
2024-01-20T17:37:01.382Z,0.11
2024-01-20T17:39:36.309Z,0.04
2024-01-20T17:42:06.749Z,-0.02
2024-01-20T17:44:36.194Z,-0.06
2024-01-20T17:47:06.786Z,-0.12
2024-01-20T17:49:35.812Z,-0.19
2024-01-20T17:52:05.351Z,-0.19
2024-01-20T17:54:36.750Z,-0.24
2024-01-20T17:57:06.615Z,-0.28
2024-01-20T17:59:35.741Z,-0.29
2024-01-20T18:02:05.652Z,-0.28
2024-01-20T18:04:35.288Z,-0.34
2024-01-20T18:07:05.011Z,-0.39
2024-01-20T18:09:35.585Z,-0.39
2024-01-20T18:12:05.109Z,-0.39
2024-01-20T18:14:35.220Z,-0.44
2024-01-20T18:17:06.630Z,-0.51
2024-01-20T18:19:36.281Z,-0.51
2024-01-20T18:22:08.027Z,-0.53
2024-01-20T18:24:39.908Z,-0.58
2024-01-20T18:27:09.168Z,-0.65
2024-01-20T18:29:39.018Z,-0.68
2024-01-20T18:32:08.192Z,-0.73
2024-01-20T18:34:38.787Z,-0.80
2024-01-20T18:37:08.208Z,-0.92
2024-01-20T18:39:37.153Z,-0.97
2024-01-20T18:42:06.993Z,-0.99
2024-01-20T18:44:36.221Z,-0.88
2024-01-20T18:47:07.285Z,-0.84
2024-01-20T18:49:36.648Z,-0.82
2024-01-20T18:52:06.392Z,-0.79
2024-01-20T18:54:35.256Z,-0.76
2024-01-20T18:57:06.420Z,-0.77
2024-01-20T18:59:36.779Z,-0.70
2024-01-20T19:02:06.163Z,-0.63
2024-01-20T19:04:37.980Z,-0.56
2024-01-20T19:07:07.449Z,-0.51
2024-01-20T19:09:38.742Z,-0.44
2024-01-20T19:12:08.359Z,-0.38
2024-01-20T19:14:39.156Z,-0.32
2024-01-20T19:17:13.218Z,-0.29
2024-01-20T19:19:43.937Z,-0.31
2024-01-20T19:22:13.400Z,-0.27
2024-01-20T19:24:42.446Z,-0.24
2024-01-20T19:27:12.473Z,-0.25
2024-01-20T19:29:42.691Z,-0.26
2024-01-20T19:32:12.048Z,-0.22
2024-01-20T19:34:40.958Z,-0.25
2024-01-20T19:37:11.513Z,-0.24
2024-01-20T19:39:40.516Z,-0.29
2024-01-20T19:42:09.774Z,-0.29
2024-01-20T19:44:38.589Z,-0.31
2024-01-20T19:47:09.140Z,-0.31
2024-01-20T19:49:38.029Z,-0.30
2024-01-20T19:52:07.424Z,-0.32
2024-01-20T19:54:36.876Z,-0.33
2024-01-20T19:57:07.645Z,-0.32
2024-01-20T19:59:37.604Z,-0.36
2024-01-20T20:02:07.320Z,-0.33
2024-01-20T20:04:39.065Z,-0.31
2024-01-20T20:07:10.312Z,-0.29
2024-01-20T20:09:39.672Z,-0.28
2024-01-20T20:12:09.384Z,-0.27
2024-01-20T20:14:38.837Z,-0.32
2024-01-20T20:17:08.014Z,-0.36
2024-01-20T20:19:38.358Z,-0.39
2024-01-20T20:22:10.344Z,-0.45
2024-01-20T20:24:40.269Z,-0.46
2024-01-20T20:27:11.039Z,-0.55
2024-01-20T20:29:40.019Z,-0.66
2024-01-20T20:32:09.440Z,-0.69
2024-01-20T20:34:39.772Z,-0.78
2024-01-20T20:37:08.900Z,-0.79
2024-01-20T20:39:37.797Z,-0.88
2024-01-20T20:42:07.400Z,-0.90
2024-01-20T20:44:36.843Z,-0.93
2024-01-20T20:47:06.211Z,-0.96
2024-01-20T20:49:35.229Z,-1.03
2024-01-20T20:52:06.176Z,-1.15
2024-01-20T20:54:35.215Z,-1.24
2024-01-20T20:57:04.728Z,-1.30
2024-01-20T20:59:34.644Z,-1.30
2024-01-20T21:02:05.878Z,-1.40
2024-01-20T21:04:34.930Z,-1.42
2024-01-20T21:07:05.728Z,-1.36
2024-01-20T21:09:34.905Z,-1.38
2024-01-20T21:12:04.099Z,-1.38
2024-01-20T21:14:33.027Z,-1.43
2024-01-20T21:17:02.266Z,-1.46
2024-01-20T21:19:31.492Z,-1.55
2024-01-20T21:22:00.774Z,-1.68
2024-01-20T21:24:32.763Z,-1.77
2024-01-20T21:27:02.123Z,-1.82
2024-01-20T21:29:31.293Z,-1.83
2024-01-20T21:32:00.496Z,-1.83
2024-01-20T21:34:29.548Z,-1.97
2024-01-20T21:36:58.802Z,-1.88
2024-01-20T21:39:29.348Z,-1.87
2024-01-20T21:42:00.004Z,-2.51
2024-01-20T21:44:29.024Z,-2.09
2024-01-20T21:46:58.262Z,-2.03
2024-01-20T21:49:27.345Z,-2.19
2024-01-20T21:51:58.698Z,-2.22
2024-01-20T21:54:29.026Z,-2.12
2024-01-20T21:56:59.970Z,-2.14
2024-01-20T21:59:28.937Z,-2.20
2024-01-20T22:01:58.056Z,-2.35
2024-01-20T22:04:26.929Z,-2.39
2024-01-20T22:06:56.311Z,-2.39
2024-01-20T22:09:25.707Z,-2.42
2024-01-20T22:11:55.146Z,-2.57
2024-01-20T22:14:25.418Z,-2.56
2024-01-20T22:16:54.622Z,-2.61
2024-01-20T22:19:24.140Z,-2.61
2024-01-20T22:21:53.551Z,-2.64
2024-01-20T22:24:22.373Z,-2.64
2024-01-20T22:26:51.768Z,-2.73
2024-01-20T22:29:30.486Z,-2.72
2024-01-20T22:32:02.513Z,-2.63
2024-01-20T22:34:33.119Z,-2.70
2024-01-20T22:37:03.130Z,-2.76
2024-01-20T22:39:32.316Z,-2.70
2024-01-20T22:42:02.423Z,-2.61
2024-01-20T22:44:31.342Z,-2.66
2024-01-20T22:47:02.262Z,-2.82
2024-01-20T22:49:31.810Z,-3.18
2024-01-20T22:52:01.140Z,-2.80
2024-01-20T22:54:33.567Z,-2.89
2024-01-20T22:57:05.511Z,-2.95
2024-01-20T22:59:34.379Z,-2.94
2024-01-20T23:02:05.266Z,-3.05
2024-01-20T23:04:34.462Z,-3.03
2024-01-20T23:07:03.830Z,-3.03
2024-01-20T23:09:32.806Z,-3.03
2024-01-20T23:12:03.275Z,-3.10
2024-01-20T23:14:34.606Z,-3.13
2024-01-20T23:17:06.018Z,-3.14
2024-01-20T23:19:35.078Z,-3.17
2024-01-20T23:22:05.088Z,-3.18
2024-01-20T23:24:34.126Z,-3.21
2024-01-20T23:27:03.291Z,-3.12
2024-01-20T23:29:32.220Z,-3.18
2024-01-20T23:32:01.400Z,-3.14
2024-01-20T23:34:33.455Z,-3.10
2024-01-20T23:37:02.705Z,-3.14
2024-01-20T23:39:31.652Z,-3.16
2024-01-20T23:42:01.019Z,-3.11
2024-01-20T23:44:29.902Z,-3.05
2024-01-20T23:46:59.018Z,-2.94
2024-01-20T23:49:27.904Z,-2.92
2024-01-20T23:51:58.467Z,-2.89
2024-01-20T23:54:27.431Z,-2.84
2024-01-20T23:56:56.688Z,-2.85
2024-01-20T23:59:25.609Z,-2.85
